Parc Barahona, Puerto Rico
Current Conditions -  °F | °C
As of 3:50 PM on Monday 24 Nov 2014 (Local Time) from TJPS Reporting Station
Broken Clouds Broken Clouds  
Wind Chill: 88°   Ceiling: 5000
Heat Index: 98°   Visibility: 10mi
Dew Point: 75°   Wind: 12mph
Humidity: 66%   Direction: 130°SE
Pressure: 29.93"   Gusts: NA
Location:  18.3346°N, 66.4186°W
Report Text: TJPS 241950Z 13010KT 10SM FEW020 BKN050 31/24 A2993 RMK DSNT SHRA NE-NW
Loading
Personal Weather Stations






























Interactive Weather Map New forecast layout! Learn more

10-Day Weather Forecast

Advertisements
Track Severe Weather on mobile